createdAt,value
2022-09-15T00:00:13.805Z,1006.54
2022-09-15T00:01:13.820Z,1006.50
2022-09-15T00:02:14.137Z,1006.50
2022-09-15T00:03:13.587Z,1006.53
2022-09-15T00:04:13.781Z,1006.49
2022-09-15T00:05:13.792Z,1006.52
2022-09-15T00:06:13.694Z,1006.50
2022-09-15T00:07:13.715Z,1006.50
2022-09-15T00:08:13.714Z,1006.46
2022-09-15T00:09:13.682Z,1006.48
2022-09-15T00:10:13.630Z,1006.51
2022-09-15T00:11:13.698Z,1006.47
2022-09-15T00:12:14.046Z,1006.50
2022-09-15T00:13:13.053Z,1006.47
2022-09-15T00:14:12.883Z,1006.48
2022-09-15T00:15:13.916Z,1006.50
2022-09-15T00:16:15.223Z,1006.49
2022-09-15T00:17:13.705Z,1006.47
2022-09-15T00:18:13.780Z,1006.49
2022-09-15T00:19:13.698Z,1006.49
2022-09-15T00:20:13.839Z,1006.43
2022-09-15T00:21:14.015Z,1006.45
2022-09-15T00:22:13.493Z,1006.48
2022-09-15T00:23:13.894Z,1006.43
2022-09-15T00:24:13.129Z,1006.44
2022-09-15T00:25:13.169Z,1006.42
2022-09-15T00:26:13.300Z,1006.44
2022-09-15T00:27:13.147Z,1006.40
2022-09-15T00:28:14.532Z,1006.40
2022-09-15T00:29:13.687Z,1006.45
2022-09-15T00:30:13.533Z,1006.43
2022-09-15T00:31:13.619Z,1006.44
2022-09-15T00:32:13.498Z,1006.38
2022-09-15T00:33:14.166Z,1006.38
2022-09-15T00:34:13.094Z,1006.38
2022-09-15T00:35:12.985Z,1006.40
2022-09-15T00:36:13.024Z,1006.43
2022-09-15T00:37:13.114Z,1006.43
2022-09-15T00:38:13.026Z,1006.41
2022-09-15T00:39:12.940Z,1006.40
2022-09-15T00:40:13.017Z,1006.44
2022-09-15T00:41:13.117Z,1006.46
2022-09-15T00:42:13.174Z,1006.46
2022-09-15T00:43:13.341Z,1006.43
2022-09-15T00:44:13.215Z,1006.42
2022-09-15T00:45:14.341Z,1006.43
2022-09-15T00:46:13.387Z,1006.44
2022-09-15T00:47:19.723Z,1006.42
2022-09-15T00:48:13.029Z,1006.43
2022-09-15T00:49:12.859Z,1006.44
2022-09-15T00:50:13.932Z,1006.44
2022-09-15T00:51:12.904Z,1006.48
2022-09-15T00:52:13.170Z,1006.43
2022-09-15T00:53:13.604Z,1006.51
2022-09-15T00:54:13.521Z,1006.48
2022-09-15T00:55:13.662Z,1006.46
2022-09-15T00:56:13.588Z,1006.49
2022-09-15T00:57:13.521Z,1006.48
2022-09-15T00:58:13.515Z,1006.47
2022-09-15T00:59:13.893Z,1006.46
2022-09-15T01:00:12.942Z,1006.50
2022-09-15T01:01:13.212Z,1006.45
2022-09-15T01:02:13.356Z,1006.43
2022-09-15T01:03:13.777Z,1006.43
2022-09-15T01:04:13.829Z,1006.43
2022-09-15T01:05:13.692Z,1006.48
2022-09-15T01:06:13.532Z,1006.43
2022-09-15T01:07:13.552Z,1006.39
2022-09-15T01:08:13.433Z,1006.41
2022-09-15T01:09:13.382Z,1006.43
2022-09-15T01:10:13.433Z,1006.42
2022-09-15T01:11:13.725Z,1006.44
2022-09-15T01:12:17.361Z,1006.43
2022-09-15T01:13:13.465Z,1006.39
2022-09-15T01:14:13.462Z,1006.39
2022-09-15T01:15:13.848Z,1006.37
2022-09-15T01:16:14.021Z,1006.39
2022-09-15T01:17:13.316Z,1006.40
2022-09-15T01:18:13.273Z,1006.39
2022-09-15T01:19:13.301Z,1006.36
2022-09-15T01:20:13.274Z,1006.40
2022-09-15T01:21:13.407Z,1006.36
2022-09-15T01:22:13.826Z,1006.35
2022-09-15T01:23:13.731Z,1006.37
2022-09-15T01:24:13.601Z,1006.36
2022-09-15T01:25:13.685Z,1006.31
2022-09-15T01:26:13.671Z,1006.35
2022-09-15T01:27:30.648Z,1006.32
2022-09-15T01:28:14.692Z,1006.37
2022-09-15T01:29:14.261Z,1006.36
2022-09-15T01:30:13.282Z,1006.35
2022-09-15T01:31:13.352Z,1006.33
2022-09-15T01:32:13.638Z,1006.32
2022-09-15T01:33:13.682Z,1006.34
2022-09-15T01:34:13.839Z,1006.34
2022-09-15T01:35:13.868Z,1006.34
2022-09-15T01:36:14.202Z,1006.32
2022-09-15T01:37:13.861Z,1006.34
2022-09-15T01:38:14.164Z,1006.33
2022-09-15T01:39:13.287Z,1006.33
2022-09-15T01:40:13.268Z,1006.31
2022-09-15T01:41:13.501Z,1006.34
2022-09-15T01:42:13.569Z,1006.34
2022-09-15T01:43:13.670Z,1006.35
2022-09-15T01:44:13.772Z,1006.33
2022-09-15T01:45:13.715Z,1006.35
2022-09-15T01:46:13.682Z,1006.33
2022-09-15T01:47:13.877Z,1006.33
2022-09-15T01:48:13.927Z,1006.33
2022-09-15T01:49:13.100Z,1006.29
2022-09-15T01:50:12.974Z,1006.30
2022-09-15T01:51:13.199Z,1006.29
2022-09-15T01:52:13.475Z,1006.25
2022-09-15T01:53:18.581Z,1006.22
2022-09-15T01:54:13.486Z,1006.27
2022-09-15T01:55:13.525Z,1006.28
2022-09-15T01:56:18.545Z,1006.26
2022-09-15T01:57:13.677Z,1006.26
2022-09-15T01:58:13.658Z,1006.29
2022-09-15T01:59:14.001Z,1006.29
2022-09-15T02:00:12.873Z,1006.33
2022-09-15T02:01:14.134Z,1006.33
2022-09-15T02:02:13.431Z,1006.37
2022-09-15T02:03:13.428Z,1006.35
2022-09-15T02:04:13.341Z,1006.33
2022-09-15T02:05:13.434Z,1006.33
2022-09-15T02:06:13.829Z,1006.34
2022-09-15T02:07:13.922Z,1006.32
2022-09-15T02:08:12.807Z,1006.32
2022-09-15T02:09:13.676Z,1006.32
2022-09-15T02:10:14.185Z,1006.30
2022-09-15T02:11:13.283Z,1006.31
2022-09-15T02:12:13.424Z,1006.29
2022-09-15T02:13:13.465Z,1006.31
2022-09-15T02:14:13.462Z,1006.28
2022-09-15T02:15:13.643Z,1006.33
2022-09-15T02:16:13.666Z,1006.36
2022-09-15T02:17:13.612Z,1006.35
2022-09-15T02:18:13.565Z,1006.39
2022-09-15T02:19:13.525Z,1006.41
2022-09-15T02:20:13.567Z,1006.41
2022-09-15T02:21:13.621Z,1006.39
2022-09-15T02:22:13.415Z,1006.39
2022-09-15T02:23:13.412Z,1006.38
2022-09-15T02:24:13.447Z,1006.37
2022-09-15T02:25:13.342Z,1006.38
2022-09-15T02:26:16.212Z,1006.36
2022-09-15T02:27:13.046Z,1006.40
2022-09-15T02:28:13.649Z,1006.40
2022-09-15T02:29:13.626Z,1006.41
2022-09-15T02:30:13.763Z,1006.42
2022-09-15T02:31:14.502Z,1006.42
2022-09-15T02:32:13.575Z,1006.43
2022-09-15T02:33:14.991Z,1006.43
2022-09-15T02:34:13.111Z,1006.44
2022-09-15T02:35:13.012Z,1006.43
2022-09-15T02:36:13.083Z,1006.44
2022-09-15T02:37:13.317Z,1006.45
2022-09-15T02:38:13.183Z,1006.43
2022-09-15T02:39:15.712Z,1006.46
2022-09-15T02:40:14.015Z,1006.45
2022-09-15T02:41:13.151Z,1006.45
2022-09-15T02:42:13.275Z,1006.47
2022-09-15T02:43:13.559Z,1006.49
2022-09-15T02:44:13.571Z,1006.53
2022-09-15T02:45:13.436Z,1006.46
2022-09-15T02:46:13.764Z,1006.46
2022-09-15T02:47:13.799Z,1006.45
2022-09-15T02:48:16.249Z,1006.46
2022-09-15T02:49:21.427Z,1006.42
2022-09-15T02:50:13.741Z,1006.45
2022-09-15T02:51:13.715Z,1006.40
2022-09-15T02:52:13.523Z,1006.44
2022-09-15T02:53:13.745Z,1006.46
2022-09-15T02:54:13.969Z,1006.42
2022-09-15T02:55:12.894Z,1006.44
2022-09-15T02:56:12.923Z,1006.44
2022-09-15T02:57:12.925Z,1006.46
2022-09-15T02:58:12.809Z,1006.41
2022-09-15T02:59:14.125Z,1006.40
2022-09-15T03:00:13.085Z,1006.42
2022-09-15T03:01:13.219Z,1006.43
2022-09-15T03:02:13.626Z,1006.47
2022-09-15T03:03:13.639Z,1006.43
2022-09-15T03:04:13.641Z,1006.47
2022-09-15T03:05:13.722Z,1006.46
2022-09-15T03:06:14.192Z,1006.45
2022-09-15T03:07:13.277Z,1006.40
2022-09-15T03:08:13.244Z,1006.43
2022-09-15T03:09:13.211Z,1006.46
2022-09-15T03:10:13.491Z,1006.44
2022-09-15T03:11:13.770Z,1006.43
2022-09-15T03:12:13.834Z,1006.46
2022-09-15T03:13:13.916Z,1006.50
2022-09-15T03:14:12.904Z,1006.51
2022-09-15T03:15:12.846Z,1006.51
2022-09-15T03:16:13.940Z,1006.51
2022-09-15T03:17:12.988Z,1006.58
2022-09-15T03:18:13.150Z,1006.61
2022-09-15T03:19:13.100Z,1006.59
2022-09-15T03:20:12.956Z,1006.60
2022-09-15T03:21:13.185Z,1006.59
2022-09-15T03:22:13.520Z,1006.63
2022-09-15T03:23:13.508Z,1006.64
2022-09-15T03:24:13.749Z,1006.61
2022-09-15T03:25:13.699Z,1006.59
2022-09-15T03:26:13.654Z,1006.58
2022-09-15T03:27:13.650Z,1006.56
2022-09-15T03:28:13.653Z,1006.55
2022-09-15T03:29:13.606Z,1006.58
2022-09-15T03:30:13.933Z,1006.56
2022-09-15T03:31:13.087Z,1006.53
2022-09-15T03:32:13.481Z,1006.55
2022-09-15T03:33:13.467Z,1006.55
2022-09-15T03:34:13.369Z,1006.52
2022-09-15T03:35:13.393Z,1006.53
2022-09-15T03:36:13.744Z,1006.56
2022-09-15T03:37:14.552Z,1006.54
2022-09-15T03:38:13.764Z,1006.55
2022-09-15T03:39:14.051Z,1006.54
2022-09-15T03:40:13.079Z,1006.59
2022-09-15T03:41:12.975Z,1006.56
2022-09-15T03:42:12.884Z,1006.55
2022-09-15T03:43:16.628Z,1006.51
2022-09-15T03:44:13.539Z,1006.57
2022-09-15T03:45:13.426Z,1006.54
2022-09-15T03:46:13.306Z,1006.55
2022-09-15T03:47:13.221Z,1006.54
2022-09-15T03:48:13.337Z,1006.52
2022-09-15T03:49:13.407Z,1006.53
2022-09-15T03:50:13.682Z,1006.52
2022-09-15T03:51:13.790Z,1006.49
2022-09-15T03:52:14.124Z,1006.49
2022-09-15T03:53:14.079Z,1006.51
2022-09-15T03:54:12.961Z,1006.51
2022-09-15T03:55:13.037Z,1006.53
2022-09-15T03:56:13.732Z,1006.55
2022-09-15T03:57:13.963Z,1006.52
2022-09-15T03:58:12.861Z,1006.53
2022-09-15T03:59:14.081Z,1006.54
2022-09-15T04:00:13.292Z,1006.55
2022-09-15T04:01:13.693Z,1006.53
2022-09-15T04:02:13.941Z,1006.55
2022-09-15T04:03:12.973Z,1006.52
2022-09-15T04:04:13.368Z,1006.52
2022-09-15T04:05:13.458Z,1006.56
2022-09-15T04:06:13.850Z,1006.52
2022-09-15T04:07:13.838Z,1006.48
2022-09-15T04:08:13.924Z,1006.49
2022-09-15T04:09:12.856Z,1006.52
2022-09-15T04:10:13.919Z,1006.47
2022-09-15T04:11:12.796Z,1006.47
2022-09-15T04:12:13.807Z,1006.47
2022-09-15T04:13:13.710Z,1006.47
2022-09-15T04:14:13.756Z,1006.45
2022-09-15T04:15:13.901Z,1006.46
2022-09-15T04:16:13.019Z,1006.46
2022-09-15T04:17:13.191Z,1006.44
2022-09-15T04:18:13.015Z,1006.44
2022-09-15T04:19:13.225Z,1006.46
2022-09-15T04:20:13.277Z,1006.46
2022-09-15T04:21:13.311Z,1006.50
2022-09-15T04:22:16.989Z,1006.53
2022-09-15T04:23:13.703Z,1006.54
2022-09-15T04:24:13.567Z,1006.52
2022-09-15T04:25:13.861Z,1006.53
2022-09-15T04:26:13.727Z,1006.58
2022-09-15T04:27:13.877Z,1006.57
2022-09-15T04:28:14.002Z,1006.58
2022-09-15T04:29:13.325Z,1006.60
2022-09-15T04:30:13.269Z,1006.60
2022-09-15T04:31:13.459Z,1006.60
2022-09-15T04:32:13.637Z,1006.63
2022-09-15T04:33:13.600Z,1006.60
2022-09-15T04:34:13.512Z,1006.60
2022-09-15T04:35:13.563Z,1006.55
2022-09-15T04:36:13.556Z,1006.56
2022-09-15T04:37:13.633Z,1006.57
2022-09-15T04:38:13.601Z,1006.54
2022-09-15T04:39:13.732Z,1006.53
2022-09-15T04:40:13.941Z,1006.54
2022-09-15T04:41:13.208Z,1006.52
2022-09-15T04:42:13.197Z,1006.55
2022-09-15T04:43:13.095Z,1006.62
2022-09-15T04:44:12.946Z,1006.59
2022-09-15T04:45:12.945Z,1006.58
2022-09-15T04:46:12.970Z,1006.62
2022-09-15T04:47:13.017Z,1006.60
2022-09-15T04:48:12.897Z,1006.61
2022-09-15T04:49:12.940Z,1006.59
2022-09-15T04:50:12.930Z,1006.59
2022-09-15T04:51:12.920Z,1006.57
2022-09-15T04:52:13.448Z,1006.55
2022-09-15T04:53:13.612Z,1006.57
2022-09-15T04:54:13.798Z,1006.53
2022-09-15T04:55:12.772Z,1006.53
2022-09-15T04:56:14.004Z,1006.55
2022-09-15T04:57:13.171Z,1006.56
2022-09-15T04:58:13.308Z,1006.51
2022-09-15T04:59:13.221Z,1006.55
2022-09-15T05:00:13.165Z,1006.56
2022-09-15T05:01:13.368Z,1006.56
2022-09-15T05:02:13.820Z,1006.59
2022-09-15T05:03:13.785Z,1006.62
2022-09-15T05:04:13.725Z,1006.63
2022-09-15T05:05:13.604Z,1006.64
2022-09-15T05:06:13.433Z,1006.63
2022-09-15T05:07:13.252Z,1006.61
2022-09-15T05:08:13.259Z,1006.63
2022-09-15T05:09:13.496Z,1006.63
2022-09-15T05:10:13.443Z,1006.68
2022-09-15T05:11:13.322Z,1006.58
2022-09-15T05:12:13.248Z,1006.63
2022-09-15T05:13:13.132Z,1006.65
2022-09-15T05:14:13.100Z,1006.66
2022-09-15T05:15:12.972Z,1006.67
2022-09-15T05:16:12.830Z,1006.68
2022-09-15T05:17:15.066Z,1006.69
2022-09-15T05:18:13.124Z,1006.69
2022-09-15T05:19:13.039Z,1006.68
2022-09-15T05:20:12.935Z,1006.73
2022-09-15T05:21:12.949Z,1006.73
2022-09-15T05:22:12.925Z,1006.73
2022-09-15T05:23:12.957Z,1006.72
2022-09-15T05:24:12.871Z,1006.76
2022-09-15T05:25:13.931Z,1006.78
2022-09-15T05:26:12.887Z,1006.80
2022-09-15T05:27:14.198Z,1006.76
2022-09-15T05:28:13.066Z,1006.78
2022-09-15T05:29:13.088Z,1006.82
2022-09-15T05:30:36.645Z,1006.83
2022-09-15T05:31:12.928Z,1006.82
2022-09-15T05:32:13.112Z,1006.85
2022-09-15T05:33:13.350Z,1006.81
2022-09-15T05:34:13.421Z,1006.82
2022-09-15T05:35:13.383Z,1006.83
2022-09-15T05:36:13.323Z,1006.85
2022-09-15T05:37:13.914Z,1006.81
2022-09-15T05:38:13.250Z,1006.83
2022-09-15T05:39:13.260Z,1006.85
2022-09-15T05:40:13.607Z,1006.83
2022-09-15T05:41:13.638Z,1006.84
2022-09-15T05:42:14.049Z,1006.83
2022-09-15T05:43:13.769Z,1006.86
2022-09-15T05:44:14.339Z,1006.85
2022-09-15T05:45:18.514Z,1006.87
2022-09-15T05:46:13.875Z,1006.84
2022-09-15T05:47:13.060Z,1006.84
2022-09-15T05:48:13.209Z,1006.85
2022-09-15T05:49:13.522Z,1006.83
2022-09-15T05:50:13.794Z,1006.82
2022-09-15T05:51:13.658Z,1006.83
2022-09-15T05:52:13.863Z,1006.86
2022-09-15T05:53:13.833Z,1006.87
2022-09-15T05:54:13.938Z,1006.90
2022-09-15T05:55:13.515Z,1006.86
2022-09-15T05:56:13.367Z,1006.86
2022-09-15T05:57:13.247Z,1006.83
2022-09-15T05:58:13.467Z,1006.86
2022-09-15T05:59:13.797Z,1006.85
2022-09-15T06:00:13.997Z,1006.83
2022-09-15T06:01:13.297Z,1006.82
2022-09-15T06:02:13.391Z,1006.83
2022-09-15T06:03:13.571Z,1006.81
2022-09-15T06:04:13.491Z,1006.86
2022-09-15T06:05:13.548Z,1006.81
2022-09-15T06:06:13.507Z,1006.87
2022-09-15T06:07:13.546Z,1006.86
2022-09-15T06:08:13.576Z,1006.91
2022-09-15T06:09:18.523Z,1006.92
2022-09-15T06:10:13.473Z,1006.92
2022-09-15T06:11:13.572Z,1006.99
2022-09-15T06:12:13.453Z,1006.96
2022-09-15T06:13:13.307Z,1006.96
2022-09-15T06:14:13.486Z,1007.02
2022-09-15T06:15:14.747Z,1007.03
2022-09-15T06:16:14.127Z,1007.04
2022-09-15T06:17:14.952Z,1007.02
2022-09-15T06:18:18.997Z,1007.03
2022-09-15T06:19:12.939Z,1007.06
2022-09-15T06:20:18.909Z,1007.02
2022-09-15T06:21:13.745Z,1007.08
2022-09-15T06:22:15.074Z,1007.09
2022-09-15T06:23:13.667Z,1007.10
2022-09-15T06:24:13.613Z,1007.10
2022-09-15T06:25:13.478Z,1007.16
2022-09-15T06:26:24.538Z,1007.12
2022-09-15T06:27:13.865Z,1007.15
2022-09-15T06:28:14.042Z,1007.13
2022-09-15T06:29:13.026Z,1007.14
2022-09-15T06:30:13.077Z,1007.12
2022-09-15T06:31:13.479Z,1007.15
2022-09-15T06:32:13.638Z,1007.14
2022-09-15T06:33:13.750Z,1007.18
2022-09-15T06:34:13.644Z,1007.18
2022-09-15T06:35:14.219Z,1007.21
2022-09-15T06:36:13.240Z,1007.18
2022-09-15T06:37:13.389Z,1007.21
2022-09-15T06:38:13.778Z,1007.19
2022-09-15T06:39:13.738Z,1007.26
2022-09-15T06:40:14.105Z,1007.25
2022-09-15T06:41:13.316Z,1007.26
2022-09-15T06:42:14.002Z,1007.28
2022-09-15T06:43:13.122Z,1007.25
2022-09-15T06:44:13.291Z,1007.27
2022-09-15T06:45:14.470Z,1007.28
2022-09-15T06:46:13.710Z,1007.27
2022-09-15T06:47:13.613Z,1007.31
2022-09-15T06:48:24.333Z,1007.30
2022-09-15T06:49:13.089Z,1007.31
2022-09-15T06:50:13.201Z,1007.30
2022-09-15T06:51:13.395Z,1007.37
2022-09-15T06:52:13.763Z,1007.34
2022-09-15T06:53:13.591Z,1007.40
2022-09-15T06:54:13.616Z,1007.37
2022-09-15T06:55:13.689Z,1007.39
2022-09-15T06:56:13.600Z,1007.38
2022-09-15T06:57:13.536Z,1007.38
2022-09-15T06:58:13.421Z,1007.43
2022-09-15T06:59:13.739Z,1007.38
2022-09-15T07:00:13.960Z,1007.41
2022-09-15T07:01:12.958Z,1007.43
2022-09-15T07:02:12.986Z,1007.42
2022-09-15T07:03:13.270Z,1007.44
2022-09-15T07:04:13.710Z,1007.45
2022-09-15T07:05:13.795Z,1007.49
2022-09-15T07:06:14.062Z,1007.50
2022-09-15T07:07:13.137Z,1007.49
2022-09-15T07:08:13.263Z,1007.54
2022-09-15T07:09:13.599Z,1007.53
2022-09-15T07:10:14.086Z,1007.50
2022-09-15T07:11:13.087Z,1007.51
2022-09-15T07:12:13.035Z,1007.56
2022-09-15T07:13:13.040Z,1007.56
2022-09-15T07:14:13.056Z,1007.57
2022-09-15T07:15:13.623Z,1007.59
2022-09-15T07:16:13.761Z,1007.61
2022-09-15T07:17:13.714Z,1007.62
2022-09-15T07:18:13.739Z,1007.63
2022-09-15T07:19:13.728Z,1007.68
2022-09-15T07:20:13.960Z,1007.68
2022-09-15T07:21:12.905Z,1007.68
2022-09-15T07:22:13.419Z,1007.67
2022-09-15T07:23:14.642Z,1007.65
2022-09-15T07:24:13.867Z,1007.67
2022-09-15T07:25:13.886Z,1007.68
2022-09-15T07:26:13.116Z,1007.68
2022-09-15T07:27:13.364Z,1007.69
2022-09-15T07:28:13.807Z,1007.68
2022-09-15T07:29:13.980Z,1007.68
2022-09-15T07:30:12.979Z,1007.74
2022-09-15T07:31:14.218Z,1007.74
2022-09-15T07:32:13.647Z,1007.72
2022-09-15T07:33:14.155Z,1007.75
2022-09-15T07:34:12.996Z,1007.76
2022-09-15T07:35:13.224Z,1007.77
2022-09-15T07:36:13.376Z,1007.78
2022-09-15T07:37:13.612Z,1007.78
2022-09-15T07:38:14.029Z,1007.78
2022-09-15T07:39:13.392Z,1007.79
2022-09-15T07:40:13.570Z,1007.81
2022-09-15T07:41:14.216Z,1007.80
2022-09-15T07:42:18.496Z,1007.81
2022-09-15T07:43:13.366Z,1007.78
2022-09-15T07:44:13.344Z,1007.83
2022-09-15T07:45:13.395Z,1007.82
2022-09-15T07:46:13.619Z,1007.84
2022-09-15T07:47:14.011Z,1007.86
2022-09-15T07:48:13.545Z,1007.84
2022-09-15T07:49:18.747Z,1007.85
2022-09-15T07:50:14.026Z,1007.85
2022-09-15T07:51:13.301Z,1007.84
2022-09-15T07:52:13.486Z,1007.82
2022-09-15T07:53:13.437Z,1007.81
2022-09-15T07:54:16.268Z,1007.87
2022-09-15T07:55:13.688Z,1007.89
2022-09-15T07:56:13.890Z,1007.87
2022-09-15T07:57:14.162Z,1007.84
2022-09-15T07:58:13.159Z,1007.86
2022-09-15T07:59:13.174Z,1007.87
2022-09-15T08:00:13.412Z,1007.91
2022-09-15T08:01:13.528Z,1007.95
2022-09-15T08:02:14.087Z,1007.93
2022-09-15T08:03:13.833Z,1007.90
2022-09-15T08:04:13.753Z,1007.86
2022-09-15T08:05:13.920Z,1007.88
2022-09-15T08:06:13.063Z,1007.89
2022-09-15T08:07:13.131Z,1007.89
2022-09-15T08:08:13.067Z,1007.88
2022-09-15T08:09:13.026Z,1007.86
2022-09-15T08:10:12.862Z,1007.85
2022-09-15T08:11:18.265Z,1007.87
2022-09-15T08:12:13.773Z,1007.86
2022-09-15T08:13:13.858Z,1007.89
2022-09-15T08:14:13.783Z,1007.93
2022-09-15T08:15:13.937Z,1007.97
2022-09-15T08:16:12.960Z,1007.95
2022-09-15T08:17:12.830Z,1007.96
2022-09-15T08:18:13.867Z,1007.94
2022-09-15T08:19:14.058Z,1007.95
2022-09-15T08:20:13.153Z,1008.01
2022-09-15T08:21:13.088Z,1008.06
2022-09-15T08:22:14.199Z,1008.04
2022-09-15T08:23:13.370Z,1008.04
2022-09-15T08:24:13.771Z,1008.10
2022-09-15T08:25:13.665Z,1008.11
2022-09-15T08:26:14.346Z,1008.10
2022-09-15T08:27:13.855Z,1008.13
2022-09-15T08:28:13.797Z,1008.14
2022-09-15T08:29:14.101Z,1008.12
2022-09-15T08:30:13.228Z,1008.13
2022-09-15T08:31:13.201Z,1008.20
2022-09-15T08:32:13.181Z,1008.21
2022-09-15T08:33:13.054Z,1008.18
2022-09-15T08:34:13.000Z,1008.17
2022-09-15T08:35:12.857Z,1008.19
2022-09-15T08:36:13.898Z,1008.21
2022-09-15T08:37:13.185Z,1008.26
2022-09-15T08:38:13.510Z,1008.26
2022-09-15T08:39:13.689Z,1008.28
2022-09-15T08:40:13.946Z,1008.27
2022-09-15T08:41:18.050Z,1008.26
2022-09-15T08:42:13.357Z,1008.29
2022-09-15T08:43:13.242Z,1008.32
2022-09-15T08:44:18.157Z,1008.29
2022-09-15T08:45:14.321Z,1008.32
2022-09-15T08:46:18.746Z,1008.37
2022-09-15T08:47:13.844Z,1008.30
2022-09-15T08:48:14.150Z,1008.35
2022-09-15T08:49:16.830Z,1008.35
2022-09-15T08:50:13.411Z,1008.37
2022-09-15T08:51:13.278Z,1008.34
2022-09-15T08:52:13.201Z,1008.37
2022-09-15T08:53:13.253Z,1008.36
2022-09-15T08:54:13.245Z,1008.38
2022-09-15T08:55:13.365Z,1008.38
2022-09-15T08:56:13.386Z,1008.38
2022-09-15T08:57:13.416Z,1008.40
2022-09-15T08:58:13.880Z,1008.41
2022-09-15T08:59:15.572Z,1008.44
2022-09-15T09:00:13.586Z,1008.40
2022-09-15T09:01:13.537Z,1008.44
2022-09-15T09:02:13.526Z,1008.42
2022-09-15T09:03:13.672Z,1008.38
2022-09-15T09:04:17.549Z,1008.39
2022-09-15T09:05:13.065Z,1008.41
2022-09-15T09:06:13.286Z,1008.40
2022-09-15T09:07:13.304Z,1008.43
2022-09-15T09:08:13.306Z,1008.48
2022-09-15T09:09:13.434Z,1008.49
2022-09-15T09:10:13.769Z,1008.50
2022-09-15T09:11:13.765Z,1008.53
2022-09-15T09:12:13.651Z,1008.51
2022-09-15T09:13:13.632Z,1008.54
2022-09-15T09:14:13.427Z,1008.57
2022-09-15T09:15:13.614Z,1008.56
2022-09-15T09:16:14.062Z,1008.53
2022-09-15T09:17:14.138Z,1008.57
2022-09-15T09:18:13.612Z,1008.57
2022-09-15T09:19:13.517Z,1008.56
2022-09-15T09:20:13.689Z,1008.55
2022-09-15T09:21:13.678Z,1008.57
2022-09-15T09:22:13.906Z,1008.57
2022-09-15T09:23:12.762Z,1008.56
2022-09-15T09:24:14.070Z,1008.57
2022-09-15T09:25:26.803Z,1008.64
2022-09-15T09:26:13.086Z,1008.58
2022-09-15T09:27:12.982Z,1008.55
2022-09-15T09:28:12.972Z,1008.58
2022-09-15T09:29:13.072Z,1008.63
2022-09-15T09:30:13.232Z,1008.63
2022-09-15T09:31:15.040Z,1008.65
2022-09-15T09:32:12.954Z,1008.61
2022-09-15T09:33:13.090Z,1008.61
2022-09-15T09:34:13.214Z,1008.59
2022-09-15T09:35:13.177Z,1008.61
2022-09-15T09:36:13.580Z,1008.64
2022-09-15T09:37:13.691Z,1008.65
2022-09-15T09:38:13.719Z,1008.61
2022-09-15T09:39:13.642Z,1008.63
2022-09-15T09:40:13.779Z,1008.65
2022-09-15T09:41:13.940Z,1008.64
2022-09-15T09:42:12.952Z,1008.68
2022-09-15T09:43:13.002Z,1008.60
2022-09-15T09:44:13.008Z,1008.61
2022-09-15T09:45:14.486Z,1008.62
2022-09-15T09:46:13.647Z,1008.61
2022-09-15T09:47:14.465Z,1008.68
2022-09-15T09:48:13.682Z,1008.66
2022-09-15T09:49:15.119Z,1008.65
2022-09-15T09:50:13.444Z,1008.68
2022-09-15T09:51:13.467Z,1008.66
2022-09-15T09:52:13.546Z,1008.61
2022-09-15T09:53:30.533Z,1008.60
2022-09-15T09:54:14.140Z,1008.68
2022-09-15T09:56:15.463Z,1008.69
2022-09-15T09:57:39.921Z,1008.69
2022-09-15T09:58:14.383Z,1008.73
2022-09-15T09:59:13.459Z,1008.63
2022-09-15T10:00:13.367Z,1008.69
2022-09-15T10:01:14.912Z,1008.69
2022-09-15T10:02:13.048Z,1008.64
2022-09-15T10:03:13.323Z,1008.62
2022-09-15T10:04:15.745Z,1008.64
2022-09-15T10:05:13.737Z,1008.60
2022-09-15T10:06:13.938Z,1008.60
2022-09-15T10:07:13.351Z,1008.60
2022-09-15T10:08:13.325Z,1008.58
2022-09-15T10:09:13.322Z,1008.53
2022-09-15T10:10:13.328Z,1008.56
2022-09-15T10:11:14.398Z,1008.54
2022-09-15T10:12:13.301Z,1008.59
2022-09-15T10:13:13.279Z,1008.54
2022-09-15T10:14:13.540Z,1008.55
2022-09-15T10:15:13.705Z,1008.50
2022-09-15T10:16:13.814Z,1008.57
2022-09-15T10:17:13.800Z,1008.56
2022-09-15T10:18:14.120Z,1008.59
2022-09-15T10:19:13.254Z,1008.59
2022-09-15T10:20:13.395Z,1008.62
2022-09-15T10:21:13.587Z,1008.60
2022-09-15T10:22:15.356Z,1008.58
2022-09-15T10:23:13.537Z,1008.55
2022-09-15T10:24:16.387Z,1008.53
2022-09-15T10:25:14.540Z,1008.52
2022-09-15T10:26:13.617Z,1008.49
2022-09-15T10:27:13.775Z,1008.53
2022-09-15T10:28:14.226Z,1008.55
2022-09-15T10:29:13.294Z,1008.51
2022-09-15T10:30:13.442Z,1008.54
2022-09-15T10:31:13.548Z,1008.56
2022-09-15T10:32:13.479Z,1008.56
2022-09-15T10:33:13.355Z,1008.57
2022-09-15T10:34:13.250Z,1008.54
2022-09-15T10:35:13.188Z,1008.57
2022-09-15T10:36:13.398Z,1008.51
2022-09-15T10:37:13.695Z,1008.53
2022-09-15T10:38:13.756Z,1008.50
2022-09-15T10:39:13.850Z,1008.57
2022-09-15T10:40:13.894Z,1008.52
2022-09-15T10:41:12.828Z,1008.52
2022-09-15T10:42:14.017Z,1008.53
2022-09-15T10:43:12.902Z,1008.52
2022-09-15T10:44:14.702Z,1008.51
2022-09-15T10:45:13.780Z,1008.52
2022-09-15T10:46:13.873Z,1008.53
2022-09-15T10:47:14.549Z,1008.52
2022-09-15T10:48:13.833Z,1008.57
2022-09-15T10:49:13.803Z,1008.57
2022-09-15T10:50:14.188Z,1008.58
2022-09-15T10:51:13.444Z,1008.59
2022-09-15T10:52:13.543Z,1008.61
2022-09-15T10:53:14.096Z,1008.62
2022-09-15T10:54:12.967Z,1008.63
2022-09-15T10:55:12.897Z,1008.64
2022-09-15T10:56:13.021Z,1008.66
2022-09-15T10:57:13.094Z,1008.67
2022-09-15T10:58:13.374Z,1008.72
2022-09-15T10:59:13.441Z,1008.72
2022-09-15T11:00:13.814Z,1008.73
2022-09-15T11:01:14.376Z,1008.82
2022-09-15T11:02:13.809Z,1008.79
2022-09-15T11:03:12.735Z,1008.86
2022-09-15T11:04:13.728Z,1008.85
2022-09-15T11:05:13.743Z,1008.84
2022-09-15T11:06:17.569Z,1008.90
2022-09-15T11:07:14.022Z,1008.89
2022-09-15T11:08:13.238Z,1008.87
2022-09-15T11:09:13.143Z,1008.84
2022-09-15T11:10:13.182Z,1008.83
2022-09-15T11:11:13.066Z,1008.86
2022-09-15T11:12:13.172Z,1008.86
2022-09-15T11:13:13.184Z,1008.90
2022-09-15T11:14:13.222Z,1008.90
2022-09-15T11:15:13.096Z,1008.93
2022-09-15T11:16:13.067Z,1008.89
2022-09-15T11:17:13.095Z,1008.93
2022-09-15T11:18:13.215Z,1008.89
2022-09-15T11:19:14.291Z,1008.89
2022-09-15T11:20:13.233Z,1008.91
2022-09-15T11:21:13.171Z,1008.89
2022-09-15T11:22:13.320Z,1008.85
2022-09-15T11:23:13.223Z,1008.86
2022-09-15T11:24:19.873Z,1008.82
2022-09-15T11:25:13.950Z,1008.82
2022-09-15T11:26:12.922Z,1008.82
2022-09-15T11:27:13.134Z,1008.81
2022-09-15T11:28:13.115Z,1008.82
2022-09-15T11:29:13.122Z,1008.79
2022-09-15T11:30:13.253Z,1008.81
2022-09-15T11:31:13.249Z,1008.85
2022-09-15T11:32:13.425Z,1008.85
2022-09-15T11:33:13.423Z,1008.86
2022-09-15T11:34:13.516Z,1008.85
2022-09-15T11:35:13.451Z,1008.84
2022-09-15T11:36:13.364Z,1008.84
2022-09-15T11:37:13.269Z,1008.91
2022-09-15T11:38:13.613Z,1008.89
2022-09-15T11:39:13.536Z,1008.91
2022-09-15T11:40:13.624Z,1008.90
2022-09-15T11:41:14.106Z,1008.95
2022-09-15T11:42:13.262Z,1008.94
2022-09-15T11:43:13.189Z,1008.96
2022-09-15T11:44:16.848Z,1008.97
2022-09-15T11:45:18.341Z,1008.99
2022-09-15T11:46:13.409Z,1008.97
2022-09-15T11:47:16.334Z,1008.92
2022-09-15T11:48:13.366Z,1008.93
2022-09-15T11:49:13.317Z,1008.95
2022-09-15T11:50:13.384Z,1008.94
2022-09-15T11:51:13.422Z,1008.94
2022-09-15T11:52:13.321Z,1008.91
2022-09-15T11:53:13.516Z,1008.90
2022-09-15T11:54:13.566Z,1008.92
2022-09-15T11:55:13.408Z,1008.90
2022-09-15T11:56:15.654Z,1008.89
2022-09-15T11:57:13.567Z,1008.89
2022-09-15T11:58:16.334Z,1008.91
2022-09-15T11:59:13.493Z,1008.87
2022-09-15T12:00:13.994Z,1008.90
2022-09-15T12:01:13.084Z,1008.88
2022-09-15T12:02:12.983Z,1008.84
2022-09-15T12:03:13.724Z,1008.85
2022-09-15T12:04:14.489Z,1008.82
2022-09-15T12:05:13.768Z,1008.85
2022-09-15T12:06:14.124Z,1008.82